KLM3CM ESGG-EDDF
Flight info
| Callsign | KLM3CM |
|---|---|
| Flight time | N/A |
| Altitude | 32000 |
| Route | TOPLA L996 ERNOV DCT NIKDA DCT NOBRI DCT BUMIL DCT HLZ DCT RIMET T157 KERAX KERAX5A |
| Aircraft | A20N/M-SDE2E3FGHIRWXY/LB1 |
Departure
| Time | N/A |
|---|---|
| Airport | Göteborg Landvetter Airport (ESGG) |
Arrival
| Time | 2026-05-04 17:20 |
|---|---|
| Airport | Frankfurt Main Airport (EDDF) |
| Time | Latitude | Longitude | Altitude | Speed | Heading |
|---|---|---|---|---|---|
| 2026-05-04 16:46 | 50.75083 | 10.11360 | 27316 ft | 428 kts | 248° |
| 2026-05-04 16:47 | 50.73139 | 10.02382 | 25176 ft | 437 kts | 249° |
| 2026-05-04 16:47 | 50.70879 | 9.93450 | 23079 ft | 442 kts | 245° |
| 2026-05-04 16:48 | 50.66914 | 9.80645 | 19019 ft | 426 kts | 242° |
| 2026-05-04 16:48 | 50.65566 | 9.76525 | 17698 ft | 420 kts | 242° |
| 2026-05-04 16:49 | 50.62877 | 9.68503 | 14971 ft | 408 kts | 236° |
| 2026-05-04 16:49 | 50.58448 | 9.63343 | 12893 ft | 400 kts | 198° |
| 2026-05-04 16:50 | 50.53188 | 9.61024 | 11440 ft | 385 kts | 197° |
| 2026-05-04 16:50 | 50.48333 | 9.58571 | 10945 ft | 348 kts | 195° |
| 2026-05-04 16:51 | 50.44587 | 9.54896 | 10944 ft | 310 kts | 238° |
| 2026-05-04 16:51 | 50.44009 | 9.51753 | 10947 ft | 297 kts | 267° |
| 2026-05-04 16:51 | 50.44187 | 9.45607 | 10948 ft | 268 kts | 265° |
| 2026-05-04 16:52 | 50.43726 | 9.39743 | 10969 ft | 275 kts | 255° |
| 2026-05-04 16:52 | 50.43305 | 9.36815 | 10959 ft | 276 kts | 253° |
| 2026-05-04 16:53 | 50.42320 | 9.31054 | 10967 ft | 275 kts | 251° |
| 2026-05-04 16:53 | 50.40635 | 9.22538 | 10630 ft | 265 kts | 247° |
| 2026-05-04 16:54 | 50.40025 | 9.19866 | 10508 ft | 255 kts | 247° |
| 2026-05-04 16:55 | 50.37741 | 9.10012 | 9637 ft | 234 kts | 246° |
| 2026-05-04 16:55 | 50.36633 | 9.05255 | 9026 ft | 231 kts | 246° |
| 2026-05-04 16:56 | 50.35534 | 9.00539 | 8412 ft | 229 kts | 246° |
| 2026-05-04 16:56 | 50.33911 | 8.93599 | 7510 ft | 226 kts | 247° |
| 2026-05-04 16:57 | 50.33370 | 8.91290 | 7194 ft | 226 kts | 247° |
| 2026-05-04 16:57 | 50.32293 | 8.86699 | 6988 ft | 225 kts | 247° |
| 2026-05-04 16:58 | 50.29296 | 8.82400 | 6976 ft | 215 kts | 166° |
| 2026-05-04 16:58 | 50.27886 | 8.83262 | 6990 ft | 221 kts | 157° |
| 2026-05-04 16:59 | 50.25064 | 8.85277 | 6985 ft | 223 kts | 159° |
| 2026-05-04 17:00 | 50.22094 | 8.92234 | 6416 ft | 240 kts | 67° |
| 2026-05-04 17:00 | 50.23466 | 8.99440 | 5477 ft | 230 kts | 111° |
| 2026-05-04 17:01 | 50.21227 | 9.02360 | 5003 ft | 212 kts | 178° |
| 2026-05-04 17:01 | 50.18405 | 9.01734 | 4572 ft | 205 kts | 193° |
| 2026-05-04 17:02 | 50.15598 | 9.00605 | 4049 ft | 220 kts | 206° |
| 2026-05-04 17:02 | 50.13319 | 8.97831 | 4016 ft | 191 kts | 223° |
| 2026-05-04 17:03 | 50.12385 | 8.96464 | 4001 ft | 181 kts | 223° |
| 2026-05-04 17:03 | 50.11473 | 8.95120 | 4009 ft | 180 kts | 224° |
| 2026-05-04 17:03 | 50.10850 | 8.91544 | 4010 ft | 179 kts | 270° |
| 2026-05-04 17:04 | 50.10226 | 8.87822 | 4004 ft | 180 kts | 249° |
| 2026-05-04 17:04 | 50.09375 | 8.84256 | 3969 ft | 162 kts | 253° |
| 2026-05-04 17:05 | 50.08853 | 8.80991 | 4061 ft | 152 kts | 256° |
| 2026-05-04 17:05 | 50.08437 | 8.77706 | 4927 ft | 154 kts | 253° |
| 2026-05-04 17:06 | 50.07753 | 8.74553 | 4994 ft | 154 kts | 249° |
| 2026-05-04 17:06 | 50.07403 | 8.72975 | 5000 ft | 154 kts | 248° |
| 2026-05-04 17:07 | 50.06665 | 8.69861 | 4996 ft | 154 kts | 248° |
| 2026-05-04 17:07 | 50.06417 | 8.68806 | 4999 ft | 154 kts | 248° |
| 2026-05-04 17:07 | 50.05927 | 8.66723 | 4994 ft | 154 kts | 248° |
| 2026-05-04 17:07 | 50.05556 | 8.65157 | 4997 ft | 154 kts | 247° |
| 2026-05-04 17:08 | 50.05156 | 8.63487 | 5065 ft | 186 kts | 248° |
| 2026-05-04 17:08 | 50.03260 | 8.60304 | 4993 ft | 212 kts | 192° |
| 2026-05-04 17:08 | 50.01829 | 8.60436 | 4992 ft | 208 kts | 157° |
| 2026-05-04 17:09 | 50.00731 | 8.61841 | 4991 ft | 209 kts | 122° |
| 2026-05-04 17:09 | 50.00288 | 8.63993 | 5008 ft | 213 kts | 98° |
| 2026-05-04 17:09 | 50.00179 | 8.66320 | 4997 ft | 216 kts | 94° |
| 2026-05-04 17:10 | 50.00079 | 8.71007 | 4999 ft | 218 kts | 94° |
| 2026-05-04 17:10 | 50.00578 | 8.77932 | 5002 ft | 219 kts | 74° |
| 2026-05-04 17:11 | 50.01042 | 8.80190 | 5005 ft | 219 kts | 73° |
| 2026-05-04 17:11 | 50.01510 | 8.82446 | 5003 ft | 219 kts | 73° |
| 2026-05-04 17:11 | 50.02440 | 8.86955 | 5008 ft | 219 kts | 73° |
| 2026-05-04 17:12 | 50.02901 | 8.89205 | 4998 ft | 218 kts | 73° |
| 2026-05-04 17:12 | 50.03825 | 8.93704 | 5004 ft | 219 kts | 73° |
| 2026-05-04 17:13 | 50.06844 | 8.98014 | 5007 ft | 217 kts | 352° |
| 2026-05-04 17:14 | 50.09542 | 8.92954 | 4551 ft | 218 kts | 284° |
| 2026-05-04 17:14 | 50.09928 | 8.90687 | 4299 ft | 215 kts | 284° |
| 2026-05-04 17:14 | 50.10651 | 8.86198 | 3768 ft | 213 kts | 282° |
| 2026-05-04 17:15 | 50.10532 | 8.83961 | 3442 ft | 210 kts | 243° |
| 2026-05-04 17:15 | 50.09153 | 8.80149 | 2984 ft | 188 kts | 247° |
| 2026-05-04 17:16 | 50.08325 | 8.76775 | 2831 ft | 154 kts | 251° |
| 2026-05-04 17:16 | 50.07220 | 8.72147 | 2237 ft | 151 kts | 252° |
| 2026-05-04 17:17 | 50.06856 | 8.70621 | 2033 ft | 150 kts | 252° |
| 2026-05-04 17:17 | 50.05774 | 8.66076 | 1411 ft | 149 kts | 252° |
| 2026-05-04 17:18 | 50.05425 | 8.64609 | 1236 ft | 142 kts | 253° |
| 2026-05-04 17:18 | 50.04780 | 8.61902 | 838 ft | 130 kts | 254° |
| 2026-05-04 17:19 | 50.04153 | 8.59273 | 504 ft | 129 kts | 254° |
| 2026-05-04 17:19 | 50.03602 | 8.56961 | 361 ft | 81 kts | 250° |
| 2026-05-04 17:20 | 50.03300 | 8.55694 | 350 ft | 36 kts | 250° |
| 2026-05-04 17:20 | 50.03353 | 8.55235 | 353 ft | 15 kts | 295° |
| 2026-05-04 17:20 | 50.03410 | 8.55174 | 346 ft | 8 kts | 15° |
| 2026-05-04 17:21 | 50.03452 | 8.55281 | 350 ft | 9 kts | 64° |
| 2026-05-04 17:21 | 50.03489 | 8.55475 | 348 ft | 12 kts | 71° |
| 2026-05-04 17:22 | 50.03529 | 8.55629 | 354 ft | 19 kts | 69° |
| 2026-05-04 17:22 | 50.03587 | 8.55869 | 355 ft | 28 kts | 69° |
| 2026-05-04 17:23 | 50.03833 | 8.56881 | 361 ft | 36 kts | 71° |
| 2026-05-04 17:23 | 50.03919 | 8.57244 | 365 ft | 36 kts | 69° |
| 2026-05-04 17:23 | 50.04091 | 8.57973 | 371 ft | 37 kts | 69° |
| 2026-05-04 17:24 | 50.04182 | 8.58353 | 373 ft | 38 kts | 70° |
| 2026-05-04 17:24 | 50.04445 | 8.59437 | 379 ft | 17 kts | 54° |
| 2026-05-04 17:25 | 50.04549 | 8.59468 | 377 ft | 10 kts | 358° |
| 2026-05-04 17:25 | 50.04562 | 8.59467 | 376 ft | 2 kts | 357° |
| 2026-05-04 17:26 | 50.04697 | 8.59442 | 375 ft | 17 kts | 344° |
| 2026-05-04 17:26 | 50.04775 | 8.59399 | 375 ft | 0 kts | 340° |
| 2026-05-04 17:27 | 50.04840 | 8.59367 | 373 ft | 13 kts | 354° |
| 2026-05-04 17:28 | 50.04967 | 8.59359 | 371 ft | 14 kts | 333° |
| 2026-05-04 17:29 | 50.05055 | 8.59185 | 368 ft | 2 kts | 161° |
| 2026-05-04 17:29 | 50.05010 | 8.59210 | 366 ft | 0 kts | 160° |
| 2026-05-04 17:30 | 50.04996 | 8.59218 | 368 ft | 0 kts | 160° |